sensor_id;sensor_type;location;lat;lon;timestamp;P1;durP1;ratioP1;P2;durP2;ratioP2
60472;SDS011;46318;52.716;6.444;2023-08-20T00:01:06;11.48;;;8.65;;
60472;SDS011;46318;52.716;6.444;2023-08-20T00:03:37;12.45;;;8.15;;
60472;SDS011;46318;52.716;6.444;2023-08-20T00:06:05;9.23;;;8.07;;
60472;SDS011;46318;52.716;6.444;2023-08-20T00:08:32;11.32;;;8.95;;
60472;SDS011;46318;52.716;6.444;2023-08-20T00:10:58;11.68;;;7.97;;
60472;SDS011;46318;52.716;6.444;2023-08-20T00:13:23;10.07;;;8.82;;
60472;SDS011;46318;52.716;6.444;2023-08-20T00:15:49;10.98;;;8.10;;
60472;SDS011;46318;52.716;6.444;2023-08-20T00:18:16;10.65;;;8.63;;
60472;SDS011;46318;52.716;6.444;2023-08-20T00:20:42;11.50;;;8.85;;
60472;SDS011;46318;52.716;6.444;2023-08-20T00:23:10;9.50;;;7.95;;
60472;SDS011;46318;52.716;6.444;2023-08-20T00:25:37;11.40;;;8.00;;
60472;SDS011;46318;52.716;6.444;2023-08-20T00:28:03;12.90;;;8.75;;
60472;SDS011;46318;52.716;6.444;2023-08-20T00:30:30;11.07;;;8.18;;
60472;SDS011;46318;52.716;6.444;2023-08-20T00:32:55;10.23;;;7.70;;
60472;SDS011;46318;52.716;6.444;2023-08-20T00:35:21;9.48;;;8.00;;
60472;SDS011;46318;52.716;6.444;2023-08-20T00:37:47;9.20;;;8.15;;
60472;SDS011;46318;52.716;6.444;2023-08-20T00:40:13;8.98;;;7.72;;
60472;SDS011;46318;52.716;6.444;2023-08-20T00:42:39;10.32;;;7.70;;
60472;SDS011;46318;52.716;6.444;2023-08-20T00:45:06;10.32;;;8.10;;
60472;SDS011;46318;52.716;6.444;2023-08-20T00:47:33;12.82;;;8.57;;
60472;SDS011;46318;52.716;6.444;2023-08-20T00:50:00;10.00;;;7.40;;
60472;SDS011;46318;52.716;6.444;2023-08-20T00:52:30;9.33;;;7.60;;
60472;SDS011;46318;52.716;6.444;2023-08-20T00:54:56;10.90;;;7.68;;
60472;SDS011;46318;52.716;6.444;2023-08-20T00:57:23;10.77;;;7.57;;
60472;SDS011;46318;52.716;6.444;2023-08-20T00:59:49;11.25;;;7.50;;
60472;SDS011;46318;52.716;6.444;2023-08-20T01:02:16;16.20;;;7.70;;
60472;SDS011;46318;52.716;6.444;2023-08-20T01:04:43;13.23;;;8.15;;
60472;SDS011;46318;52.716;6.444;2023-08-20T01:10:31;12.52;;;8.15;;
60472;SDS011;46318;52.716;6.444;2023-08-20T01:13:08;10.10;;;8.20;;
60472;SDS011;46318;52.716;6.444;2023-08-20T01:15:35;9.20;;;7.93;;
60472;SDS011;46318;52.716;6.444;2023-08-20T01:18:01;8.98;;;7.93;;
60472;SDS011;46318;52.716;6.444;2023-08-20T01:20:29;9.85;;;7.78;;
60472;SDS011;46318;52.716;6.444;2023-08-20T01:23:12;9.75;;;7.47;;
60472;SDS011;46318;52.716;6.444;2023-08-20T01:29:08;10.10;;;7.68;;
60472;SDS011;46318;52.716;6.444;2023-08-20T01:31:36;8.73;;;7.30;;
60472;SDS011;46318;52.716;6.444;2023-08-20T01:34:03;8.85;;;7.63;;
60472;SDS011;46318;52.716;6.444;2023-08-20T01:36:32;9.68;;;7.13;;
60472;SDS011;46318;52.716;6.444;2023-08-20T01:39:03;9.27;;;7.23;;
60472;SDS011;46318;52.716;6.444;2023-08-20T01:41:30;9.48;;;8.07;;
60472;SDS011;46318;52.716;6.444;2023-08-20T01:43:56;9.20;;;7.63;;
60472;SDS011;46318;52.716;6.444;2023-08-20T01:46:22;10.20;;;7.30;;
60472;SDS011;46318;52.716;6.444;2023-08-20T01:48:48;10.27;;;7.68;;
60472;SDS011;46318;52.716;6.444;2023-08-20T01:51:13;8.32;;;7.47;;
60472;SDS011;46318;52.716;6.444;2023-08-20T01:53:40;8.50;;;7.70;;
60472;SDS011;46318;52.716;6.444;2023-08-20T01:56:10;10.90;;;8.35;;
60472;SDS011;46318;52.716;6.444;2023-08-20T01:58:37;8.70;;;7.70;;
60472;SDS011;46318;52.716;6.444;2023-08-20T02:01:03;13.65;;;8.38;;
60472;SDS011;46318;52.716;6.444;2023-08-20T02:03:29;11.18;;;8.57;;
60472;SDS011;46318;52.716;6.444;2023-08-20T02:05:56;9.27;;;8.18;;
60472;SDS011;46318;52.716;6.444;2023-08-20T02:08:22;9.32;;;7.80;;
60472;SDS011;46318;52.716;6.444;2023-08-20T02:10:48;10.18;;;7.78;;
60472;SDS011;46318;52.716;6.444;2023-08-20T02:13:14;12.80;;;8.20;;
60472;SDS011;46318;52.716;6.444;2023-08-20T02:15:41;9.85;;;7.93;;
60472;SDS011;46318;52.716;6.444;2023-08-20T02:18:07;8.80;;;7.88;;
60472;SDS011;46318;52.716;6.444;2023-08-20T02:20:33;9.20;;;8.15;;
60472;SDS011;46318;52.716;6.444;2023-08-20T02:22:58;9.20;;;7.80;;
60472;SDS011;46318;52.716;6.444;2023-08-20T02:25:24;10.55;;;8.10;;
60472;SDS011;46318;52.716;6.444;2023-08-20T02:27:50;8.82;;;7.57;;
60472;SDS011;46318;52.716;6.444;2023-08-20T02:30:16;8.45;;;7.72;;
60472;SDS011;46318;52.716;6.444;2023-08-20T02:32:44;10.75;;;7.70;;
60472;SDS011;46318;52.716;6.444;2023-08-20T02:35:10;8.70;;;7.50;;
60472;SDS011;46318;52.716;6.444;2023-08-20T02:37:38;9.90;;;7.85;;
60472;SDS011;46318;52.716;6.444;2023-08-20T02:40:06;10.38;;;7.72;;
60472;SDS011;46318;52.716;6.444;2023-08-20T02:42:33;12.38;;;8.20;;
60472;SDS011;46318;52.716;6.444;2023-08-20T02:44:59;10.13;;;8.25;;
60472;SDS011;46318;52.716;6.444;2023-08-20T02:47:25;10.60;;;7.85;;
60472;SDS011;46318;52.716;6.444;2023-08-20T02:49:51;9.23;;;8.05;;
60472;SDS011;46318;52.716;6.444;2023-08-20T02:52:17;12.93;;;8.63;;
60472;SDS011;46318;52.716;6.444;2023-08-20T02:54:43;10.70;;;7.57;;
60472;SDS011;46318;52.716;6.444;2023-08-20T02:57:09;8.55;;;7.65;;
60472;SDS011;46318;52.716;6.444;2023-08-20T02:59:36;11.15;;;7.82;;
60472;SDS011;46318;52.716;6.444;2023-08-20T03:02:02;11.10;;;8.65;;
60472;SDS011;46318;52.716;6.444;2023-08-20T03:04:28;10.25;;;8.65;;
60472;SDS011;46318;52.716;6.444;2023-08-20T03:06:55;12.05;;;9.70;;
60472;SDS011;46318;52.716;6.444;2023-08-20T03:09:21;11.27;;;8.77;;
60472;SDS011;46318;52.716;6.444;2023-08-20T03:11:47;10.43;;;8.48;;
60472;SDS011;46318;52.716;6.444;2023-08-20T03:14:13;10.93;;;8.77;;
60472;SDS011;46318;52.716;6.444;2023-08-20T03:16:40;10.57;;;9.07;;
60472;SDS011;46318;52.716;6.444;2023-08-20T03:19:06;10.18;;;9.07;;
60472;SDS011;46318;52.716;6.444;2023-08-20T03:21:32;10.25;;;8.68;;
60472;SDS011;46318;52.716;6.444;2023-08-20T03:23:58;13.70;;;10.50;;
60472;SDS011;46318;52.716;6.444;2023-08-20T03:26:24;11.90;;;10.18;;
60472;SDS011;46318;52.716;6.444;2023-08-20T03:28:50;10.90;;;9.77;;
60472;SDS011;46318;52.716;6.444;2023-08-20T03:31:19;10.45;;;9.55;;
60472;SDS011;46318;52.716;6.444;2023-08-20T03:33:45;13.13;;;10.55;;
60472;SDS011;46318;52.716;6.444;2023-08-20T03:36:11;11.88;;;9.90;;
60472;SDS011;46318;52.716;6.444;2023-08-20T03:38:37;10.90;;;9.77;;
60472;SDS011;46318;52.716;6.444;2023-08-20T03:41:07;12.70;;;10.75;;
60472;SDS011;46318;52.716;6.444;2023-08-20T03:43:32;11.20;;;10.07;;
60472;SDS011;46318;52.716;6.444;2023-08-20T03:45:58;13.27;;;10.32;;
60472;SDS011;46318;52.716;6.444;2023-08-20T03:48:24;12.27;;;10.60;;
60472;SDS011;46318;52.716;6.444;2023-08-20T03:50:50;10.60;;;9.68;;
60472;SDS011;46318;52.716;6.444;2023-08-20T03:53:16;11.20;;;10.18;;
60472;SDS011;46318;52.716;6.444;2023-08-20T03:55:46;12.00;;;10.73;;
60472;SDS011;46318;52.716;6.444;2023-08-20T03:58:16;12.07;;;10.77;;
60472;SDS011;46318;52.716;6.444;2023-08-20T04:00:43;14.77;;;10.27;;
60472;SDS011;46318;52.716;6.444;2023-08-20T04:03:12;12.45;;;11.15;;
60472;SDS011;46318;52.716;6.444;2023-08-20T04:05:39;12.00;;;10.80;;
60472;SDS011;46318;52.716;6.444;2023-08-20T04:08:06;13.32;;;12.02;;
60472;SDS011;46318;52.716;6.444;2023-08-20T04:10:32;12.07;;;10.90;;
60472;SDS011;46318;52.716;6.444;2023-08-20T04:12:58;12.25;;;10.60;;
60472;SDS011;46318;52.716;6.444;2023-08-20T04:15:26;11.88;;;10.48;;
60472;SDS011;46318;52.716;6.444;2023-08-20T04:17:51;12.65;;;11.45;;
60472;SDS011;46318;52.716;6.444;2023-08-20T04:20:22;12.85;;;11.50;;
60472;SDS011;46318;52.716;6.444;2023-08-20T04:22:48;12.75;;;11.50;;
60472;SDS011;46318;52.716;6.444;2023-08-20T04:25:16;13.07;;;11.20;;
60472;SDS011;46318;52.716;6.444;2023-08-20T04:27:42;14.57;;;11.02;;
60472;SDS011;46318;52.716;6.444;2023-08-20T04:30:08;14.88;;;11.48;;
60472;SDS011;46318;52.716;6.444;2023-08-20T04:32:35;13.15;;;11.40;;
60472;SDS011;46318;52.716;6.444;2023-08-20T04:35:04;13.98;;;10.93;;
60472;SDS011;46318;52.716;6.444;2023-08-20T04:37:30;12.52;;;11.23;;
60472;SDS011;46318;52.716;6.444;2023-08-20T04:39:56;13.18;;;11.32;;
60472;SDS011;46318;52.716;6.444;2023-08-20T04:42:22;12.68;;;11.32;;
60472;SDS011;46318;52.716;6.444;2023-08-20T04:44:48;12.13;;;10.88;;
60472;SDS011;46318;52.716;6.444;2023-08-20T04:47:14;13.75;;;11.02;;
60472;SDS011;46318;52.716;6.444;2023-08-20T04:49:40;11.38;;;10.35;;
60472;SDS011;46318;52.716;6.444;2023-08-20T04:52:06;13.85;;;11.20;;
60472;SDS011;46318;52.716;6.444;2023-08-20T04:54:32;12.27;;;11.02;;
60472;SDS011;46318;52.716;6.444;2023-08-20T04:56:58;18.50;;;10.95;;
60472;SDS011;46318;52.716;6.444;2023-08-20T04:59:24;11.50;;;10.40;;
60472;SDS011;46318;52.716;6.444;2023-08-20T05:01:51;11.50;;;10.18;;
60472;SDS011;46318;52.716;6.444;2023-08-20T05:04:17;10.25;;;9.20;;
60472;SDS011;46318;52.716;6.444;2023-08-20T05:06:43;11.90;;;10.70;;
60472;SDS011;46318;52.716;6.444;2023-08-20T05:09:09;11.20;;;9.98;;
60472;SDS011;46318;52.716;6.444;2023-08-20T05:11:34;11.30;;;9.98;;
60472;SDS011;46318;52.716;6.444;2023-08-20T05:14:03;11.73;;;10.50;;
60472;SDS011;46318;52.716;6.444;2023-08-20T05:16:29;11.48;;;10.43;;
60472;SDS011;46318;52.716;6.444;2023-08-20T05:18:56;11.85;;;10.05;;
60472;SDS011;46318;52.716;6.444;2023-08-20T05:21:21;12.80;;;10.70;;
60472;SDS011;46318;52.716;6.444;2023-08-20T05:23:53;13.32;;;11.00;;
60472;SDS011;46318;52.716;6.444;2023-08-20T05:26:19;13.48;;;10.82;;
60472;SDS011;46318;52.716;6.444;2023-08-20T05:28:47;12.05;;;10.80;;
60472;SDS011;46318;52.716;6.444;2023-08-20T05:31:13;14.15;;;10.73;;
60472;SDS011;46318;52.716;6.444;2023-08-20T05:33:39;11.52;;;10.50;;
60472;SDS011;46318;52.716;6.444;2023-08-20T05:36:04;11.88;;;10.05;;
60472;SDS011;46318;52.716;6.444;2023-08-20T05:38:30;12.68;;;11.02;;
60472;SDS011;46318;52.716;6.444;2023-08-20T05:40:56;14.00;;;10.63;;
60472;SDS011;46318;52.716;6.444;2023-08-20T05:43:22;11.38;;;10.18;;
60472;SDS011;46318;52.716;6.444;2023-08-20T05:45:48;11.50;;;10.25;;
60472;SDS011;46318;52.716;6.444;2023-08-20T05:48:14;12.10;;;9.95;;
60472;SDS011;46318;52.716;6.444;2023-08-20T05:50:40;11.82;;;10.70;;
60472;SDS011;46318;52.716;6.444;2023-08-20T05:53:07;11.45;;;10.20;;
60472;SDS011;46318;52.716;6.444;2023-08-20T05:55:33;11.27;;;10.18;;
60472;SDS011;46318;52.716;6.444;2023-08-20T05:57:59;11.10;;;9.85;;
60472;SDS011;46318;52.716;6.444;2023-08-20T06:00:25;13.10;;;10.13;;
60472;SDS011;46318;52.716;6.444;2023-08-20T06:02:51;12.13;;;9.55;;
60472;SDS011;46318;52.716;6.444;2023-08-20T06:05:17;11.18;;;10.07;;
60472;SDS011;46318;52.716;6.444;2023-08-20T06:07:43;11.45;;;9.55;;
60472;SDS011;46318;52.716;6.444;2023-08-20T06:10:09;10.73;;;9.63;;
60472;SDS011;46318;52.716;6.444;2023-08-20T06:12:37;10.50;;;8.77;;
60472;SDS011;46318;52.716;6.444;2023-08-20T06:15:03;13.00;;;8.80;;
60472;SDS011;46318;52.716;6.444;2023-08-20T06:17:30;12.10;;;9.15;;
60472;SDS011;46318;52.716;6.444;2023-08-20T06:19:56;11.50;;;9.25;;
60472;SDS011;46318;52.716;6.444;2023-08-20T06:22:22;12.95;;;9.70;;
60472;SDS011;46318;52.716;6.444;2023-08-20T06:24:48;12.15;;;9.80;;
60472;SDS011;46318;52.716;6.444;2023-08-20T06:27:13;12.70;;;9.40;;
60472;SDS011;46318;52.716;6.444;2023-08-20T06:29:39;12.60;;;8.82;;
60472;SDS011;46318;52.716;6.444;2023-08-20T06:32:05;11.38;;;8.95;;
60472;SDS011;46318;52.716;6.444;2023-08-20T06:34:33;11.30;;;8.38;;
60472;SDS011;46318;52.716;6.444;2023-08-20T06:37:00;14.15;;;9.52;;
60472;SDS011;46318;52.716;6.444;2023-08-20T06:39:26;11.60;;;8.40;;
60472;SDS011;46318;52.716;6.444;2023-08-20T06:41:52;10.25;;;8.13;;
60472;SDS011;46318;52.716;6.444;2023-08-20T06:44:17;10.38;;;7.88;;
60472;SDS011;46318;52.716;6.444;2023-08-20T06:46:43;8.95;;;7.65;;
60472;SDS011;46318;52.716;6.444;2023-08-20T06:49:09;9.43;;;8.00;;
60472;SDS011;46318;52.716;6.444;2023-08-20T06:51:35;11.73;;;7.07;;
60472;SDS011;46318;52.716;6.444;2023-08-20T06:54:01;13.25;;;7.30;;
60472;SDS011;46318;52.716;6.444;2023-08-20T06:56:27;9.98;;;7.45;;
60472;SDS011;46318;52.716;6.444;2023-08-20T06:58:53;9.10;;;6.63;;
60472;SDS011;46318;52.716;6.444;2023-08-20T07:01:19;9.27;;;6.47;;
60472;SDS011;46318;52.716;6.444;2023-08-20T07:03:45;9.50;;;7.40;;
60472;SDS011;46318;52.716;6.444;2023-08-20T07:06:11;9.18;;;6.78;;
60472;SDS011;46318;52.716;6.444;2023-08-20T07:08:39;11.63;;;7.13;;
60472;SDS011;46318;52.716;6.444;2023-08-20T07:11:05;9.15;;;6.38;;
60472;SDS011;46318;52.716;6.444;2023-08-20T07:13:32;12.02;;;7.25;;
60472;SDS011;46318;52.716;6.444;2023-08-20T07:15:58;12.63;;;7.18;;
60472;SDS011;46318;52.716;6.444;2023-08-20T07:18:25;12.02;;;6.80;;
60472;SDS011;46318;52.716;6.444;2023-08-20T07:20:51;11.32;;;7.60;;
60472;SDS011;46318;52.716;6.444;2023-08-20T07:23:17;11.82;;;6.90;;
60472;SDS011;46318;52.716;6.444;2023-08-20T07:25:43;10.25;;;6.85;;
60472;SDS011;46318;52.716;6.444;2023-08-20T07:28:13;11.43;;;6.38;;
60472;SDS011;46318;52.716;6.444;2023-08-20T07:30:40;10.27;;;6.10;;
60472;SDS011;46318;52.716;6.444;2023-08-20T07:33:06;8.73;;;5.63;;
60472;SDS011;46318;52.716;6.444;2023-08-20T07:35:32;10.07;;;6.05;;
60472;SDS011;46318;52.716;6.444;2023-08-20T07:38:00;9.18;;;5.60;;
60472;SDS011;46318;52.716;6.444;2023-08-20T07:40:26;10.00;;;6.00;;
60472;SDS011;46318;52.716;6.444;2023-08-20T07:42:52;9.65;;;5.72;;
60472;SDS011;46318;52.716;6.444;2023-08-20T07:45:18;12.45;;;5.25;;
60472;SDS011;46318;52.716;6.444;2023-08-20T07:47:44;10.93;;;6.05;;
60472;SDS011;46318;52.716;6.444;2023-08-20T07:50:10;11.95;;;5.90;;
60472;SDS011;46318;52.716;6.444;2023-08-20T07:52:36;10.75;;;5.47;;
60472;SDS011;46318;52.716;6.444;2023-08-20T07:55:02;12.38;;;5.90;;
60472;SDS011;46318;52.716;6.444;2023-08-20T07:57:28;12.45;;;6.07;;
60472;SDS011;46318;52.716;6.444;2023-08-20T07:59:54;11.00;;;5.35;;
60472;SDS011;46318;52.716;6.444;2023-08-20T08:02:20;9.18;;;4.80;;
60472;SDS011;46318;52.716;6.444;2023-08-20T08:04:46;13.88;;;5.72;;
60472;SDS011;46318;52.716;6.444;2023-08-20T08:07:12;9.43;;;5.22;;
60472;SDS011;46318;52.716;6.444;2023-08-20T08:09:38;13.38;;;5.40;;
60472;SDS011;46318;52.716;6.444;2023-08-20T08:12:04;10.02;;;5.28;;
60472;SDS011;46318;52.716;6.444;2023-08-20T08:14:31;10.63;;;6.00;;
60472;SDS011;46318;52.716;6.444;2023-08-20T08:16:57;12.88;;;5.65;;
60472;SDS011;46318;52.716;6.444;2023-08-20T08:19:22;11.38;;;5.53;;
60472;SDS011;46318;52.716;6.444;2023-08-20T08:21:48;10.57;;;4.80;;
60472;SDS011;46318;52.716;6.444;2023-08-20T08:24:15;10.07;;;4.47;;
60472;SDS011;46318;52.716;6.444;2023-08-20T08:26:41;7.80;;;4.45;;
60472;SDS011;46318;52.716;6.444;2023-08-20T08:29:07;10.90;;;4.20;;
60472;SDS011;46318;52.716;6.444;2023-08-20T08:31:34;9.82;;;3.90;;
60472;SDS011;46318;52.716;6.444;2023-08-20T08:34:01;10.68;;;3.53;;
60472;SDS011;46318;52.716;6.444;2023-08-20T08:36:31;7.68;;;3.60;;
60472;SDS011;46318;52.716;6.444;2023-08-20T08:38:56;8.27;;;3.55;;
60472;SDS011;46318;52.716;6.444;2023-08-20T08:41:22;10.20;;;3.88;;
60472;SDS011;46318;52.716;6.444;2023-08-20T08:43:50;9.48;;;3.60;;
60472;SDS011;46318;52.716;6.444;2023-08-20T08:46:20;7.95;;;3.25;;
60472;SDS011;46318;52.716;6.444;2023-08-20T08:48:47;6.78;;;2.90;;
60472;SDS011;46318;52.716;6.444;2023-08-20T08:51:14;9.05;;;3.55;;
60472;SDS011;46318;52.716;6.444;2023-08-20T08:53:42;8.23;;;2.88;;
60472;SDS011;46318;52.716;6.444;2023-08-20T08:56:10;8.63;;;3.20;;
60472;SDS011;46318;52.716;6.444;2023-08-20T08:58:36;9.23;;;3.35;;
60472;SDS011;46318;52.716;6.444;2023-08-20T09:01:02;7.30;;;2.90;;
60472;SDS011;46318;52.716;6.444;2023-08-20T09:03:28;8.10;;;3.17;;
60472;SDS011;46318;52.716;6.444;2023-08-20T09:06:01;6.93;;;2.90;;
60472;SDS011;46318;52.716;6.444;2023-08-20T09:08:33;9.25;;;2.90;;
60472;SDS011;46318;52.716;6.444;2023-08-20T09:11:01;6.32;;;1.95;;
60472;SDS011;46318;52.716;6.444;2023-08-20T09:13:35;4.78;;;1.92;;
60472;SDS011;46318;52.716;6.444;2023-08-20T09:16:06;7.38;;;2.35;;
60472;SDS011;46318;52.716;6.444;2023-08-20T09:18:46;8.77;;;2.80;;
60472;SDS011;46318;52.716;6.444;2023-08-20T09:21:12;6.45;;;1.85;;
60472;SDS011;46318;52.716;6.444;2023-08-20T09:23:39;7.30;;;2.03;;
60472;SDS011;46318;52.716;6.444;2023-08-20T09:26:05;3.80;;;1.52;;
60472;SDS011;46318;52.716;6.444;2023-08-20T09:28:42;5.95;;;2.05;;
60472;SDS011;46318;52.716;6.444;2023-08-20T09:31:10;5.80;;;1.65;;
60472;SDS011;46318;52.716;6.444;2023-08-20T09:33:48;5.32;;;1.70;;
60472;SDS011;46318;52.716;6.444;2023-08-20T09:36:15;6.43;;;1.73;;
60472;SDS011;46318;52.716;6.444;2023-08-20T09:38:41;5.57;;;1.58;;
60472;SDS011;46318;52.716;6.444;2023-08-20T09:41:08;4.20;;;1.80;;
60472;SDS011;46318;52.716;6.444;2023-08-20T09:43:38;6.80;;;2.00;;
60472;SDS011;46318;52.716;6.444;2023-08-20T09:46:06;5.75;;;1.90;;
60472;SDS011;46318;52.716;6.444;2023-08-20T09:48:39;5.45;;;1.88;;
60472;SDS011;46318;52.716;6.444;2023-08-20T09:51:10;6.35;;;2.28;;
60472;SDS011;46318;52.716;6.444;2023-08-20T09:53:37;7.03;;;2.33;;
60472;SDS011;46318;52.716;6.444;2023-08-20T09:56:15;6.30;;;2.20;;
60472;SDS011;46318;52.716;6.444;2023-08-20T09:58:51;6.10;;;2.28;;
60472;SDS011;46318;52.716;6.444;2023-08-20T10:01:19;10.15;;;2.75;;
60472;SDS011;46318;52.716;6.444;2023-08-20T10:03:45;7.10;;;2.38;;
60472;SDS011;46318;52.716;6.444;2023-08-20T10:06:11;7.18;;;2.47;;
60472;SDS011;46318;52.716;6.444;2023-08-20T10:08:38;10.57;;;2.70;;
60472;SDS011;46318;52.716;6.444;2023-08-20T10:11:04;5.53;;;2.20;;
60472;SDS011;46318;52.716;6.444;2023-08-20T10:13:30;7.10;;;2.25;;
60472;SDS011;46318;52.716;6.444;2023-08-20T10:15:56;9.15;;;2.80;;
60472;SDS011;46318;52.716;6.444;2023-08-20T10:18:22;7.72;;;2.83;;
60472;SDS011;46318;52.716;6.444;2023-08-20T10:20:51;7.68;;;2.63;;
60472;SDS011;46318;52.716;6.444;2023-08-20T10:23:21;7.10;;;2.28;;
60472;SDS011;46318;52.716;6.444;2023-08-20T10:25:51;4.20;;;1.90;;
60472;SDS011;46318;52.716;6.444;2023-08-20T10:28:20;4.82;;;1.85;;
60472;SDS011;46318;52.716;6.444;2023-08-20T10:33:36;5.28;;;1.67;;
60472;SDS011;46318;52.716;6.444;2023-08-20T10:36:17;4.93;;;1.85;;
60472;SDS011;46318;52.716;6.444;2023-08-20T10:38:47;4.68;;;2.00;;
60472;SDS011;46318;52.716;6.444;2023-08-20T10:41:15;6.93;;;2.75;;
60472;SDS011;46318;52.716;6.444;2023-08-20T10:43:47;4.18;;;1.80;;
60472;SDS011;46318;52.716;6.444;2023-08-20T10:48:48;5.40;;;1.98;;
60472;SDS011;46318;52.716;6.444;2023-08-20T10:51:33;6.45;;;1.60;;
60472;SDS011;46318;52.716;6.444;2023-08-20T10:59:16;4.32;;;1.42;;
60472;SDS011;46318;52.716;6.444;2023-08-20T11:01:48;4.97;;;1.80;;
60472;SDS011;46318;52.716;6.444;2023-08-20T11:04:16;3.53;;;2.00;;
60472;SDS011;46318;52.716;6.444;2023-08-20T11:06:44;3.40;;;1.40;;
60472;SDS011;46318;52.716;6.444;2023-08-20T11:09:11;6.65;;;2.03;;
60472;SDS011;46318;52.716;6.444;2023-08-20T11:11:39;5.55;;;1.98;;
60472;SDS011;46318;52.716;6.444;2023-08-20T11:14:12;5.15;;;1.80;;
60472;SDS011;46318;52.716;6.444;2023-08-20T11:16:40;4.18;;;1.88;;
60472;SDS011;46318;52.716;6.444;2023-08-20T11:19:08;4.32;;;1.50;;
60472;SDS011;46318;52.716;6.444;2023-08-20T11:21:35;4.20;;;1.38;;
60472;SDS011;46318;52.716;6.444;2023-08-20T11:24:04;3.22;;;1.33;;
60472;SDS011;46318;52.716;6.444;2023-08-20T11:26:40;6.43;;;1.70;;
60472;SDS011;46318;52.716;6.444;2023-08-20T11:29:08;3.70;;;1.38;;
60472;SDS011;46318;52.716;6.444;2023-08-20T11:31:38;5.90;;;1.80;;
60472;SDS011;46318;52.716;6.444;2023-08-20T11:34:05;5.40;;;1.77;;
60472;SDS011;46318;52.716;6.444;2023-08-20T11:36:33;2.65;;;1.35;;
60472;SDS011;46318;52.716;6.444;2023-08-20T11:39:00;4.05;;;1.17;;
60472;SDS011;46318;52.716;6.444;2023-08-20T11:41:26;3.22;;;1.35;;
60472;SDS011;46318;52.716;6.444;2023-08-20T11:43:53;3.50;;;1.20;;
60472;SDS011;46318;52.716;6.444;2023-08-20T11:46:19;1.90;;;1.00;;
60472;SDS011;46318;52.716;6.444;2023-08-20T11:49:00;6.00;;;1.40;;
60472;SDS011;46318;52.716;6.444;2023-08-20T11:51:37;4.78;;;1.60;;
60472;SDS011;46318;52.716;6.444;2023-08-20T11:54:05;4.25;;;1.20;;
60472;SDS011;46318;52.716;6.444;2023-08-20T11:56:42;3.72;;;1.00;;
60472;SDS011;46318;52.716;6.444;2023-08-20T11:59:14;3.38;;;1.52;;
60472;SDS011;46318;52.716;6.444;2023-08-20T12:01:42;5.93;;;1.52;;
60472;SDS011;46318;52.716;6.444;2023-08-20T12:04:08;2.38;;;1.30;;
60472;SDS011;46318;52.716;6.444;2023-08-20T12:06:36;3.40;;;1.00;;
60472;SDS011;46318;52.716;6.444;2023-08-20T12:09:22;3.63;;;1.27;;
60472;SDS011;46318;52.716;6.444;2023-08-20T12:11:49;3.95;;;1.45;;
60472;SDS011;46318;52.716;6.444;2023-08-20T12:14:17;3.72;;;1.27;;
60472;SDS011;46318;52.716;6.444;2023-08-20T12:16:44;3.72;;;1.30;;
60472;SDS011;46318;52.716;6.444;2023-08-20T12:19:10;3.40;;;1.08;;
60472;SDS011;46318;52.716;6.444;2023-08-20T12:21:37;4.20;;;1.23;;
60472;SDS011;46318;52.716;6.444;2023-08-20T12:24:03;2.40;;;1.38;;
60472;SDS011;46318;52.716;6.444;2023-08-20T12:26:30;3.60;;;1.30;;
60472;SDS011;46318;52.716;6.444;2023-08-20T12:28:56;3.85;;;1.25;;
60472;SDS011;46318;52.716;6.444;2023-08-20T12:31:22;5.18;;;1.35;;
60472;SDS011;46318;52.716;6.444;2023-08-20T12:33:48;3.20;;;1.25;;
60472;SDS011;46318;52.716;6.444;2023-08-20T12:36:14;4.63;;;1.58;;
60472;SDS011;46318;52.716;6.444;2023-08-20T12:38:40;3.10;;;1.10;;
60472;SDS011;46318;52.716;6.444;2023-08-20T12:41:07;2.60;;;1.15;;
60472;SDS011;46318;52.716;6.444;2023-08-20T12:43:33;3.05;;;1.30;;
60472;SDS011;46318;52.716;6.444;2023-08-20T12:45:59;3.63;;;1.38;;
60472;SDS011;46318;52.716;6.444;2023-08-20T12:48:25;5.63;;;1.45;;
60472;SDS011;46318;52.716;6.444;2023-08-20T12:50:50;2.85;;;1.10;;
60472;SDS011;46318;52.716;6.444;2023-08-20T12:53:16;7.78;;;1.58;;
60472;SDS011;46318;52.716;6.444;2023-08-20T12:55:42;5.88;;;2.20;;
60472;SDS011;46318;52.716;6.444;2023-08-20T12:58:08;12.60;;;2.00;;
60472;SDS011;46318;52.716;6.444;2023-08-20T13:00:34;3.90;;;1.80;;
60472;SDS011;46318;52.716;6.444;2023-08-20T13:03:00;4.72;;;1.35;;
60472;SDS011;46318;52.716;6.444;2023-08-20T13:05:27;3.20;;;1.40;;
60472;SDS011;46318;52.716;6.444;2023-08-20T13:07:53;3.97;;;1.35;;
60472;SDS011;46318;52.716;6.444;2023-08-20T13:10:19;2.97;;;1.30;;
60472;SDS011;46318;52.716;6.444;2023-08-20T13:12:53;1.92;;;0.90;;
60472;SDS011;46318;52.716;6.444;2023-08-20T13:15:20;5.22;;;1.40;;
60472;SDS011;46318;52.716;6.444;2023-08-20T13:17:48;3.90;;;1.20;;
60472;SDS011;46318;52.716;6.444;2023-08-20T13:20:15;2.88;;;0.95;;
60472;SDS011;46318;52.716;6.444;2023-08-20T13:22:47;2.90;;;1.08;;
60472;SDS011;46318;52.716;6.444;2023-08-20T13:25:14;1.42;;;0.80;;
60472;SDS011;46318;52.716;6.444;2023-08-20T13:27:41;2.35;;;1.38;;
60472;SDS011;46318;52.716;6.444;2023-08-20T13:30:16;4.22;;;1.30;;
60472;SDS011;46318;52.716;6.444;2023-08-20T13:32:42;2.05;;;0.82;;
60472;SDS011;46318;52.716;6.444;2023-08-20T13:35:08;3.25;;;1.20;;
60472;SDS011;46318;52.716;6.444;2023-08-20T13:37:34;2.20;;;0.93;;
60472;SDS011;46318;52.716;6.444;2023-08-20T13:40:02;2.50;;;1.20;;
60472;SDS011;46318;52.716;6.444;2023-08-20T13:42:29;2.88;;;1.20;;
60472;SDS011;46318;52.716;6.444;2023-08-20T13:44:55;3.05;;;1.00;;
60472;SDS011;46318;52.716;6.444;2023-08-20T13:47:22;2.97;;;0.98;;
60472;SDS011;46318;52.716;6.444;2023-08-20T13:49:48;1.90;;;1.00;;
60472;SDS011;46318;52.716;6.444;2023-08-20T13:52:14;3.22;;;1.20;;
60472;SDS011;46318;52.716;6.444;2023-08-20T13:54:40;3.08;;;1.02;;
60472;SDS011;46318;52.716;6.444;2023-08-20T13:57:06;2.85;;;0.80;;
60472;SDS011;46318;52.716;6.444;2023-08-20T13:59:32;2.47;;;1.00;;
60472;SDS011;46318;52.716;6.444;2023-08-20T14:01:59;2.35;;;0.90;;
60472;SDS011;46318;52.716;6.444;2023-08-20T14:04:24;1.92;;;0.85;;
60472;SDS011;46318;52.716;6.444;2023-08-20T14:06:50;2.05;;;0.80;;
60472;SDS011;46318;52.716;6.444;2023-08-20T14:09:17;1.08;;;0.68;;
60472;SDS011;46318;52.716;6.444;2023-08-20T14:11:45;1.45;;;0.77;;
60472;SDS011;46318;52.716;6.444;2023-08-20T14:14:11;2.47;;;0.85;;
60472;SDS011;46318;52.716;6.444;2023-08-20T14:16:40;2.92;;;1.00;;
60472;SDS011;46318;52.716;6.444;2023-08-20T14:19:06;2.08;;;0.80;;
60472;SDS011;46318;52.716;6.444;2023-08-20T14:21:33;153.77;;;143.15;;
60472;SDS011;46318;52.716;6.444;2023-08-20T14:23:59;109.25;;;102.10;;
60472;SDS011;46318;52.716;6.444;2023-08-20T14:26:25;179.93;;;167.10;;
60472;SDS011;46318;52.716;6.444;2023-08-20T14:28:52;38.42;;;35.85;;
60472;SDS011;46318;52.716;6.444;2023-08-20T14:31:18;22.80;;;21.35;;
60472;SDS011;46318;52.716;6.444;2023-08-20T14:33:44;9.60;;;8.90;;
60472;SDS011;46318;52.716;6.444;2023-08-20T14:36:10;6.50;;;3.65;;
60472;SDS011;46318;52.716;6.444;2023-08-20T14:38:37;4.50;;;1.50;;
60472;SDS011;46318;52.716;6.444;2023-08-20T14:41:03;2.05;;;1.10;;
60472;SDS011;46318;52.716;6.444;2023-08-20T14:43:29;2.15;;;1.00;;
60472;SDS011;46318;52.716;6.444;2023-08-20T14:45:55;4.18;;;0.88;;
60472;SDS011;46318;52.716;6.444;2023-08-20T14:48:22;3.63;;;0.90;;
60472;SDS011;46318;52.716;6.444;2023-08-20T14:50:49;2.05;;;0.95;;
60472;SDS011;46318;52.716;6.444;2023-08-20T14:53:16;3.45;;;1.10;;
60472;SDS011;46318;52.716;6.444;2023-08-20T14:55:43;2.15;;;0.85;;